Skip Navigation Links
NOAA logo - Click to go to the NOAA homepage
NOAA's National Weather Service
Alaska Aviation Weather Unit
  NWS logo - Click to go to the NWS homepage
Left Navbar Graphic     00 AKDT = 08 GMT

   
NOAA is celebrating 200 years of science, service, and stewardship. Visit the NOAA 200th celebration Web site to learn more.
USA.gov is the U.S. Government's official Web portal to all Federal, state and local government Web resources and services.
Facebook
NWS on Facebook

Important Change Regarding the AAWU Web Presence

 

Over the last several months, the AAWU has been working to navigate its webpages to a nationally supported server. Security, as well as other needs, have necessitated the change.  We have been given an extension for the site changeover while we diligently work at addressing feedback received. As of July 14, 2017, aawu.arh.noaa.gov will be discontinued. The new AAWU web address is weather.gov/aawu. It is now live and will run in-parallel with the old site until it is discontinued on July 14, 2017. Please continue to send any feedback or questions regarding the new webpages to nws.ar.aawu.webauthors@noaa.gov.  Thank you for your patience during this time of transition.
AAWU Home :: Display TAF Add Bookmark
TAF PASD 240543Z 2406/2506  32015KT P6SM -SHRA SCT025 BKN035
     FM240800 28012KT P6SM SCT025 OVC040
      AMD LTD TO CLD VIS AND WIND=

4697
FTAK31 PANC 240543
TAFADU
TAF

METAR PASD 240256Z 33016KT 10SM -RA FEW020 SCT029 BKN038 08/04 A2962 RMK AO2 SLP034 LAST DA P0000 60000 T00780044 51013= SPECI PASD 240347Z AUTO 34013G18KT 10SM BKN029 OVC033 08/03 A2963 RMK AO2 RAE34 P0000= METAR PASD 240356Z AUTO 34015G19KT 10SM OVC029 08/03 A2963 RMK AO2 RAE34 SLP037 P0000 T00780028= SPECI PASD 240433Z AUTO 33012KT 10SM FEW027 BKN035 07/03 A2964 RMK AO2= METAR PASD 240456Z AUTO 32015KT 10SM BKN039 07/03 A2964 RMK AO2 SLP040 T00720028= METAR PASD 240556Z AUTO 33012KT 10SM BKN043 07/03 A2966 RMK AO2 SLP045 60000 T00670028 10089 20067 53012= SPECI PASD 240624Z AUTO 33012KT 10SM BKN029 BKN049 07/02 A2966 RMK AO2= PASD 240653Z AUTO 35009KT 10SM SCT029 07/01 A2966 RMK AO2= METAR PASD 240656Z AUTO 34009KT 10SM FEW030 07/01 A2966 RMK AO2 SLP047 T00670011= METAR PASD 240756Z AUTO 32007KT 10SM BKN036 06/02 A2967 RMK AO2 SLP049 T00610017=
 Alaska TAF Map

NOAA's National Weather Service
Alaska Aviation Weather Unit
6930 Sand Lake Road
Anchorage, AK 99502-1845
Disclaimer
Credits
Glossary
Privacy Policy
About Us
Career Opportunities
Contact AAWU Internet Services Site last modified: April, 17th 2012